sensor_id;sensor_type;location;lat;lon;timestamp;P1;P2;P0
46240;PMS5003;31961;52.416;-0.732;2023-04-03T00:01:42;8;8;
46240;PMS5003;31961;52.416;-0.732;2023-04-03T00:04:09;7;7;
46240;PMS5003;31961;52.416;-0.732;2023-04-03T00:06:36;6;6;
46240;PMS5003;31961;52.416;-0.732;2023-04-03T00:09:03;9;8;
46240;PMS5003;31961;52.416;-0.732;2023-04-03T00:11:31;4;4;
46240;PMS5003;31961;52.416;-0.732;2023-04-03T00:13:58;7;6;
46240;PMS5003;31961;52.416;-0.732;2023-04-03T00:16:24;7;7;
46240;PMS5003;31961;52.416;-0.732;2023-04-03T00:18:52;9;9;
46240;PMS5003;31961;52.416;-0.732;2023-04-03T00:21:18;8;5;
46240;PMS5003;31961;52.416;-0.732;2023-04-03T00:23:45;7;6;
46240;PMS5003;31961;52.416;-0.732;2023-04-03T00:26:13;6;6;
46240;PMS5003;31961;52.416;-0.732;2023-04-03T00:28:41;7;7;
46240;PMS5003;31961;52.416;-0.732;2023-04-03T00:31:08;8;6;
46240;PMS5003;31961;52.416;-0.732;2023-04-03T00:33:35;7;5;
46240;PMS5003;31961;52.416;-0.732;2023-04-03T00:36:05;6;5;
46240;PMS5003;31961;52.416;-0.732;2023-04-03T00:38:33;4;4;
46240;PMS5003;31961;52.416;-0.732;2023-04-03T00:40:59;5;5;
46240;PMS5003;31961;52.416;-0.732;2023-04-03T00:43:26;3;3;
46240;PMS5003;31961;52.416;-0.732;2023-04-03T00:45:54;7;6;
46240;PMS5003;31961;52.416;-0.732;2023-04-03T00:48:24;4;3;
46240;PMS5003;31961;52.416;-0.732;2023-04-03T00:50:55;7;6;
46240;PMS5003;31961;52.416;-0.732;2023-04-03T00:53:25;6;5;
46240;PMS5003;31961;52.416;-0.732;2023-04-03T00:55:56;6;5;
46240;PMS5003;31961;52.416;-0.732;2023-04-03T00:58:26;5;5;
46240;PMS5003;31961;52.416;-0.732;2023-04-03T01:00:59;6;6;
46240;PMS5003;31961;52.416;-0.732;2023-04-03T01:03:32;5;5;
46240;PMS5003;31961;52.416;-0.732;2023-04-03T01:06:00;6;5;
46240;PMS5003;31961;52.416;-0.732;2023-04-03T01:08:28;7;6;
46240;PMS5003;31961;52.416;-0.732;2023-04-03T01:10:56;6;5;
46240;PMS5003;31961;52.416;-0.732;2023-04-03T01:13:24;6;5;
46240;PMS5003;31961;52.416;-0.732;2023-04-03T01:15:53;5;5;
46240;PMS5003;31961;52.416;-0.732;2023-04-03T01:18:21;9;7;
46240;PMS5003;31961;52.416;-0.732;2023-04-03T01:20:57;8;7;
46240;PMS5003;31961;52.416;-0.732;2023-04-03T01:23:43;8;7;
46240;PMS5003;31961;52.416;-0.732;2023-04-03T01:26:22;8;5;
46240;PMS5003;31961;52.416;-0.732;2023-04-03T01:28:49;8;6;
46240;PMS5003;31961;52.416;-0.732;2023-04-03T01:31:18;9;6;
46240;PMS5003;31961;52.416;-0.732;2023-04-03T01:33:51;6;5;
46240;PMS5003;31961;52.416;-0.732;2023-04-03T01:36:19;6;6;
46240;PMS5003;31961;52.416;-0.732;2023-04-03T01:38:48;9;7;
46240;PMS5003;31961;52.416;-0.732;2023-04-03T01:41:15;8;7;
46240;PMS5003;31961;52.416;-0.732;2023-04-03T01:43:43;7;6;
46240;PMS5003;31961;52.416;-0.732;2023-04-03T01:46:10;6;6;
46240;PMS5003;31961;52.416;-0.732;2023-04-03T01:48:37;7;6;
46240;PMS5003;31961;52.416;-0.732;2023-04-03T01:51:04;8;5;
46240;PMS5003;31961;52.416;-0.732;2023-04-03T01:53:32;7;5;
46240;PMS5003;31961;52.416;-0.732;2023-04-03T01:56:00;7;5;
46240;PMS5003;31961;52.416;-0.732;2023-04-03T01:58:26;4;4;
46240;PMS5003;31961;52.416;-0.732;2023-04-03T02:00:54;6;4;
46240;PMS5003;31961;52.416;-0.732;2023-04-03T02:03:21;7;4;
46240;PMS5003;31961;52.416;-0.732;2023-04-03T02:05:49;7;7;
46240;PMS5003;31961;52.416;-0.732;2023-04-03T02:08:16;4;4;
46240;PMS5003;31961;52.416;-0.732;2023-04-03T02:10:44;11;6;
46240;PMS5003;31961;52.416;-0.732;2023-04-03T02:13:13;5;5;
46240;PMS5003;31961;52.416;-0.732;2023-04-03T02:15:41;7;7;
46240;PMS5003;31961;52.416;-0.732;2023-04-03T02:18:07;5;5;
46240;PMS5003;31961;52.416;-0.732;2023-04-03T02:20:35;9;6;
46240;PMS5003;31961;52.416;-0.732;2023-04-03T02:23:02;8;7;
46240;PMS5003;31961;52.416;-0.732;2023-04-03T02:25:30;7;5;
46240;PMS5003;31961;52.416;-0.732;2023-04-03T02:27:58;4;4;
46240;PMS5003;31961;52.416;-0.732;2023-04-03T02:30:26;5;5;
46240;PMS5003;31961;52.416;-0.732;2023-04-03T02:32:53;8;8;
46240;PMS5003;31961;52.416;-0.732;2023-04-03T02:35:21;6;4;
46240;PMS5003;31961;52.416;-0.732;2023-04-03T02:37:48;4;4;
46240;PMS5003;31961;52.416;-0.732;2023-04-03T02:40:17;4;4;
46240;PMS5003;31961;52.416;-0.732;2023-04-03T02:42:44;4;3;
46240;PMS5003;31961;52.416;-0.732;2023-04-03T02:45:11;5;5;
46240;PMS5003;31961;52.416;-0.732;2023-04-03T02:47:37;5;5;
46240;PMS5003;31961;52.416;-0.732;2023-04-03T02:50:04;3;3;
46240;PMS5003;31961;52.416;-0.732;2023-04-03T02:52:32;5;4;
46240;PMS5003;31961;52.416;-0.732;2023-04-03T02:55:00;5;5;
46240;PMS5003;31961;52.416;-0.732;2023-04-03T02:57:26;5;5;
46240;PMS5003;31961;52.416;-0.732;2023-04-03T02:59:53;6;4;
46240;PMS5003;31961;52.416;-0.732;2023-04-03T03:02:20;3;3;
46240;PMS5003;31961;52.416;-0.732;2023-04-03T03:04:47;5;4;
46240;PMS5003;31961;52.416;-0.732;2023-04-03T03:07:13;7;6;
46240;PMS5003;31961;52.416;-0.732;2023-04-03T03:09:40;6;4;
46240;PMS5003;31961;52.416;-0.732;2023-04-03T03:12:08;4;4;
46240;PMS5003;31961;52.416;-0.732;2023-04-03T03:14:36;4;4;
46240;PMS5003;31961;52.416;-0.732;2023-04-03T03:17:02;4;4;
46240;PMS5003;31961;52.416;-0.732;2023-04-03T03:19:30;5;5;
46240;PMS5003;31961;52.416;-0.732;2023-04-03T03:21:57;4;4;
46240;PMS5003;31961;52.416;-0.732;2023-04-03T03:24:24;4;4;
46240;PMS5003;31961;52.416;-0.732;2023-04-03T03:26:51;8;6;
46240;PMS5003;31961;52.416;-0.732;2023-04-03T03:29:18;4;4;
46240;PMS5003;31961;52.416;-0.732;2023-04-03T03:31:46;4;3;
46240;PMS5003;31961;52.416;-0.732;2023-04-03T03:34:13;5;3;
46240;PMS5003;31961;52.416;-0.732;2023-04-03T03:36:39;6;5;
46240;PMS5003;31961;52.416;-0.732;2023-04-03T03:39:06;5;4;
46240;PMS5003;31961;52.416;-0.732;2023-04-03T03:41:34;4;4;
46240;PMS5003;31961;52.416;-0.732;2023-04-03T03:44:00;4;2;
46240;PMS5003;31961;52.416;-0.732;2023-04-03T03:46:27;3;3;
46240;PMS5003;31961;52.416;-0.732;2023-04-03T03:48:54;4;3;
46240;PMS5003;31961;52.416;-0.732;2023-04-03T03:51:22;4;3;
46240;PMS5003;31961;52.416;-0.732;2023-04-03T03:53:48;5;3;
46240;PMS5003;31961;52.416;-0.732;2023-04-03T03:56:16;3;3;
46240;PMS5003;31961;52.416;-0.732;2023-04-03T03:58:43;5;5;
46240;PMS5003;31961;52.416;-0.732;2023-04-03T04:01:10;4;4;
46240;PMS5003;31961;52.416;-0.732;2023-04-03T04:03:37;3;3;
46240;PMS5003;31961;52.416;-0.732;2023-04-03T04:06:05;7;6;
46240;PMS5003;31961;52.416;-0.732;2023-04-03T04:08:32;6;3;
46240;PMS5003;31961;52.416;-0.732;2023-04-03T04:11:00;6;4;
46240;PMS5003;31961;52.416;-0.732;2023-04-03T04:13:28;6;4;
46240;PMS5003;31961;52.416;-0.732;2023-04-03T04:15:56;6;4;
46240;PMS5003;31961;52.416;-0.732;2023-04-03T04:18:23;4;3;
46240;PMS5003;31961;52.416;-0.732;2023-04-03T04:20:51;4;3;
46240;PMS5003;31961;52.416;-0.732;2023-04-03T04:23:18;2;2;
46240;PMS5003;31961;52.416;-0.732;2023-04-03T04:25:46;5;2;
46240;PMS5003;31961;52.416;-0.732;2023-04-03T04:28:15;6;4;
46240;PMS5003;31961;52.416;-0.732;2023-04-03T04:30:42;4;3;
46240;PMS5003;31961;52.416;-0.732;2023-04-03T04:33:10;3;3;
46240;PMS5003;31961;52.416;-0.732;2023-04-03T04:35:37;5;4;
46240;PMS5003;31961;52.416;-0.732;2023-04-03T04:38:04;3;3;
46240;PMS5003;31961;52.416;-0.732;2023-04-03T04:40:31;4;3;
46240;PMS5003;31961;52.416;-0.732;2023-04-03T04:42:58;7;5;
46240;PMS5003;31961;52.416;-0.732;2023-04-03T04:45:25;3;3;
46240;PMS5003;31961;52.416;-0.732;2023-04-03T04:47:54;5;3;
46240;PMS5003;31961;52.416;-0.732;2023-04-03T04:50:22;4;4;
46240;PMS5003;31961;52.416;-0.732;2023-04-03T04:52:49;7;5;
46240;PMS5003;31961;52.416;-0.732;2023-04-03T04:55:16;4;2;
46240;PMS5003;31961;52.416;-0.732;2023-04-03T04:57:44;7;5;
46240;PMS5003;31961;52.416;-0.732;2023-04-03T05:00:12;7;4;
46240;PMS5003;31961;52.416;-0.732;2023-04-03T05:02:39;4;4;
46240;PMS5003;31961;52.416;-0.732;2023-04-03T05:05:07;3;3;
46240;PMS5003;31961;52.416;-0.732;2023-04-03T05:07:35;4;4;
46240;PMS5003;31961;52.416;-0.732;2023-04-03T05:10:01;4;4;
46240;PMS5003;31961;52.416;-0.732;2023-04-03T05:12:29;6;5;
46240;PMS5003;31961;52.416;-0.732;2023-04-03T05:14:57;5;3;
46240;PMS5003;31961;52.416;-0.732;2023-04-03T05:17:24;3;3;
46240;PMS5003;31961;52.416;-0.732;2023-04-03T05:19:51;7;3;
46240;PMS5003;31961;52.416;-0.732;2023-04-03T05:22:19;6;3;
46240;PMS5003;31961;52.416;-0.732;2023-04-03T05:24:46;2;2;
46240;PMS5003;31961;52.416;-0.732;2023-04-03T05:27:13;5;4;
46240;PMS5003;31961;52.416;-0.732;2023-04-03T05:29:41;3;3;
46240;PMS5003;31961;52.416;-0.732;2023-04-03T05:32:09;4;2;
46240;PMS5003;31961;52.416;-0.732;2023-04-03T05:34:36;7;6;
46240;PMS5003;31961;52.416;-0.732;2023-04-03T05:37:04;6;4;
46240;PMS5003;31961;52.416;-0.732;2023-04-03T05:39:32;6;4;
46240;PMS5003;31961;52.416;-0.732;2023-04-03T05:41:59;5;4;
46240;PMS5003;31961;52.416;-0.732;2023-04-03T05:44:27;3;3;
46240;PMS5003;31961;52.416;-0.732;2023-04-03T05:46:54;5;4;
46240;PMS5003;31961;52.416;-0.732;2023-04-03T05:49:20;2;2;
46240;PMS5003;31961;52.416;-0.732;2023-04-03T05:51:48;4;4;
46240;PMS5003;31961;52.416;-0.732;2023-04-03T05:54:17;4;3;
46240;PMS5003;31961;52.416;-0.732;2023-04-03T05:56:47;6;5;
46240;PMS5003;31961;52.416;-0.732;2023-04-03T05:59:14;4;3;
46240;PMS5003;31961;52.416;-0.732;2023-04-03T06:01:41;5;5;
46240;PMS5003;31961;52.416;-0.732;2023-04-03T06:04:09;7;4;
46240;PMS5003;31961;52.416;-0.732;2023-04-03T06:06:52;7;4;
46240;PMS5003;31961;52.416;-0.732;2023-04-03T06:09:22;6;4;
46240;PMS5003;31961;52.416;-0.732;2023-04-03T06:11:51;5;5;
46240;PMS5003;31961;52.416;-0.732;2023-04-03T06:14:18;5;5;
46240;PMS5003;31961;52.416;-0.732;2023-04-03T06:16:46;4;3;
46240;PMS5003;31961;52.416;-0.732;2023-04-03T06:19:14;5;4;
46240;PMS5003;31961;52.416;-0.732;2023-04-03T06:21:41;6;5;
46240;PMS5003;31961;52.416;-0.732;2023-04-03T06:24:09;4;3;
46240;PMS5003;31961;52.416;-0.732;2023-04-03T06:26:38;5;4;
46240;PMS5003;31961;52.416;-0.732;2023-04-03T06:29:05;4;3;
46240;PMS5003;31961;52.416;-0.732;2023-04-03T06:31:32;4;4;
46240;PMS5003;31961;52.416;-0.732;2023-04-03T06:33:59;5;5;
46240;PMS5003;31961;52.416;-0.732;2023-04-03T06:36:27;7;7;
46240;PMS5003;31961;52.416;-0.732;2023-04-03T06:38:55;6;4;
46240;PMS5003;31961;52.416;-0.732;2023-04-03T06:41:22;4;4;
46240;PMS5003;31961;52.416;-0.732;2023-04-03T06:43:50;4;4;
46240;PMS5003;31961;52.416;-0.732;2023-04-03T06:46:17;3;3;
46240;PMS5003;31961;52.416;-0.732;2023-04-03T06:48:47;5;4;
46240;PMS5003;31961;52.416;-0.732;2023-04-03T06:51:17;5;4;
46240;PMS5003;31961;52.416;-0.732;2023-04-03T06:53:46;5;3;
46240;PMS5003;31961;52.416;-0.732;2023-04-03T06:56:13;5;5;
46240;PMS5003;31961;52.416;-0.732;2023-04-03T06:58:41;6;5;
46240;PMS5003;31961;52.416;-0.732;2023-04-03T07:01:09;4;4;
46240;PMS5003;31961;52.416;-0.732;2023-04-03T07:03:36;6;4;
46240;PMS5003;31961;52.416;-0.732;2023-04-03T07:06:04;8;6;
46240;PMS5003;31961;52.416;-0.732;2023-04-03T07:08:33;8;5;
46240;PMS5003;31961;52.416;-0.732;2023-04-03T07:11:01;6;5;
46240;PMS5003;31961;52.416;-0.732;2023-04-03T07:13:28;6;5;
46240;PMS5003;31961;52.416;-0.732;2023-04-03T07:15:55;5;5;
46240;PMS5003;31961;52.416;-0.732;2023-04-03T07:18:23;5;5;
46240;PMS5003;31961;52.416;-0.732;2023-04-03T07:20:51;6;6;
46240;PMS5003;31961;52.416;-0.732;2023-04-03T07:23:19;3;3;
46240;PMS5003;31961;52.416;-0.732;2023-04-03T07:25:47;7;7;
46240;PMS5003;31961;52.416;-0.732;2023-04-03T07:28:16;6;5;
46240;PMS5003;31961;52.416;-0.732;2023-04-03T07:30:47;3;3;
46240;PMS5003;31961;52.416;-0.732;2023-04-03T07:33:17;4;4;
46240;PMS5003;31961;52.416;-0.732;2023-04-03T07:35:45;4;4;
46240;PMS5003;31961;52.416;-0.732;2023-04-03T07:38:13;37;37;
46240;PMS5003;31961;52.416;-0.732;2023-04-03T07:40:40;24;24;
46240;PMS5003;31961;52.416;-0.732;2023-04-03T07:43:12;26;25;
46240;PMS5003;31961;52.416;-0.732;2023-04-03T07:45:40;30;28;
46240;PMS5003;31961;52.416;-0.732;2023-04-03T07:48:08;24;23;
46240;PMS5003;31961;52.416;-0.732;2023-04-03T07:50:35;16;16;
46240;PMS5003;31961;52.416;-0.732;2023-04-03T07:53:02;18;16;
46240;PMS5003;31961;52.416;-0.732;2023-04-03T07:55:31;10;7;
46240;PMS5003;31961;52.416;-0.732;2023-04-03T07:57:58;4;3;
46240;PMS5003;31961;52.416;-0.732;2023-04-03T08:00:25;4;4;
46240;PMS5003;31961;52.416;-0.732;2023-04-03T08:02:52;5;4;
46240;PMS5003;31961;52.416;-0.732;2023-04-03T08:05:19;4;4;
46240;PMS5003;31961;52.416;-0.732;2023-04-03T08:07:47;5;5;
46240;PMS5003;31961;52.416;-0.732;2023-04-03T08:10:15;5;2;
46240;PMS5003;31961;52.416;-0.732;2023-04-03T08:12:45;4;4;
46240;PMS5003;31961;52.416;-0.732;2023-04-03T08:15:12;2;2;
46240;PMS5003;31961;52.416;-0.732;2023-04-03T08:17:39;4;4;
46240;PMS5003;31961;52.416;-0.732;2023-04-03T08:20:07;4;4;
46240;PMS5003;31961;52.416;-0.732;2023-04-03T08:22:36;3;3;
46240;PMS5003;31961;52.416;-0.732;2023-04-03T08:25:04;4;4;
46240;PMS5003;31961;52.416;-0.732;2023-04-03T08:27:32;5;4;
46240;PMS5003;31961;52.416;-0.732;2023-04-03T08:30:00;3;3;
46240;PMS5003;31961;52.416;-0.732;2023-04-03T08:32:28;5;5;
46240;PMS5003;31961;52.416;-0.732;2023-04-03T08:34:55;5;4;
46240;PMS5003;31961;52.416;-0.732;2023-04-03T08:37:23;4;3;
46240;PMS5003;31961;52.416;-0.732;2023-04-03T08:39:50;5;4;
46240;PMS5003;31961;52.416;-0.732;2023-04-03T08:42:19;3;3;
46240;PMS5003;31961;52.416;-0.732;2023-04-03T08:45:05;4;2;
46240;PMS5003;31961;52.416;-0.732;2023-04-03T08:47:40;3;3;
46240;PMS5003;31961;52.416;-0.732;2023-04-03T08:50:14;3;3;
46240;PMS5003;31961;52.416;-0.732;2023-04-03T08:52:45;3;3;
46240;PMS5003;31961;52.416;-0.732;2023-04-03T08:55:20;3;3;
46240;PMS5003;31961;52.416;-0.732;2023-04-03T08:57:54;4;4;
46240;PMS5003;31961;52.416;-0.732;2023-04-03T09:00:28;3;3;
46240;PMS5003;31961;52.416;-0.732;2023-04-03T09:03:00;5;3;
46240;PMS5003;31961;52.416;-0.732;2023-04-03T09:05:31;3;3;
46240;PMS5003;31961;52.416;-0.732;2023-04-03T09:08:07;5;4;
46240;PMS5003;31961;52.416;-0.732;2023-04-03T09:10:42;7;4;
46240;PMS5003;31961;52.416;-0.732;2023-04-03T09:13:11;3;3;
46240;PMS5003;31961;52.416;-0.732;2023-04-03T09:15:48;4;3;
46240;PMS5003;31961;52.416;-0.732;2023-04-03T09:18:16;4;3;
46240;PMS5003;31961;52.416;-0.732;2023-04-03T09:20:49;5;4;
46240;PMS5003;31961;52.416;-0.732;2023-04-03T09:23:26;7;6;
46240;PMS5003;31961;52.416;-0.732;2023-04-03T09:25:58;5;4;
46240;PMS5003;31961;52.416;-0.732;2023-04-03T09:28:30;5;4;
46240;PMS5003;31961;52.416;-0.732;2023-04-03T09:31:00;10;8;
46240;PMS5003;31961;52.416;-0.732;2023-04-03T09:33:28;6;4;
46240;PMS5003;31961;52.416;-0.732;2023-04-03T09:35:57;6;4;
46240;PMS5003;31961;52.416;-0.732;2023-04-03T09:38:23;7;6;
46240;PMS5003;31961;52.416;-0.732;2023-04-03T09:41:02;4;4;
46240;PMS5003;31961;52.416;-0.732;2023-04-03T09:43:33;4;4;
46240;PMS5003;31961;52.416;-0.732;2023-04-03T09:46:18;3;3;
46240;PMS5003;31961;52.416;-0.732;2023-04-03T09:48:55;3;3;
46240;PMS5003;31961;52.416;-0.732;2023-04-03T09:51:28;7;5;
46240;PMS5003;31961;52.416;-0.732;2023-04-03T09:53:57;4;4;
46240;PMS5003;31961;52.416;-0.732;2023-04-03T09:56:25;3;3;
46240;PMS5003;31961;52.416;-0.732;2023-04-03T09:59:06;5;4;
46240;PMS5003;31961;52.416;-0.732;2023-04-03T10:01:41;2;2;
46240;PMS5003;31961;52.416;-0.732;2023-04-03T10:04:09;8;7;
46240;PMS5003;31961;52.416;-0.732;2023-04-03T10:06:39;7;5;
46240;PMS5003;31961;52.416;-0.732;2023-04-03T10:09:16;6;4;
46240;PMS5003;31961;52.416;-0.732;2023-04-03T10:12:02;5;4;
46240;PMS5003;31961;52.416;-0.732;2023-04-03T10:14:32;4;3;
46240;PMS5003;31961;52.416;-0.732;2023-04-03T10:17:03;4;4;
46240;PMS5003;31961;52.416;-0.732;2023-04-03T10:19:44;7;7;
46240;PMS5003;31961;52.416;-0.732;2023-04-03T10:22:18;5;5;
46240;PMS5003;31961;52.416;-0.732;2023-04-03T10:24:52;8;6;
46240;PMS5003;31961;52.416;-0.732;2023-04-03T10:27:32;6;5;
46240;PMS5003;31961;52.416;-0.732;2023-04-03T10:30:13;8;8;
46240;PMS5003;31961;52.416;-0.732;2023-04-03T10:32:54;7;7;
46240;PMS5003;31961;52.416;-0.732;2023-04-03T10:35:37;7;6;
46240;PMS5003;31961;52.416;-0.732;2023-04-03T10:38:13;7;7;
46240;PMS5003;31961;52.416;-0.732;2023-04-03T10:40:47;5;5;
46240;PMS5003;31961;52.416;-0.732;2023-04-03T10:43:24;5;5;
46240;PMS5003;31961;52.416;-0.732;2023-04-03T10:46:00;6;6;
46240;PMS5003;31961;52.416;-0.732;2023-04-03T10:48:34;7;7;
46240;PMS5003;31961;52.416;-0.732;2023-04-03T10:51:13;6;6;
46240;PMS5003;31961;52.416;-0.732;2023-04-03T10:53:51;7;7;
46240;PMS5003;31961;52.416;-0.732;2023-04-03T10:56:24;6;6;
46240;PMS5003;31961;52.416;-0.732;2023-04-03T10:58:58;7;6;
46240;PMS5003;31961;52.416;-0.732;2023-04-03T11:01:34;5;5;
46240;PMS5003;31961;52.416;-0.732;2023-04-03T11:04:05;7;7;
46240;PMS5003;31961;52.416;-0.732;2023-04-03T11:06:35;7;6;
46240;PMS5003;31961;52.416;-0.732;2023-04-03T11:09:07;8;8;
46240;PMS5003;31961;52.416;-0.732;2023-04-03T11:11:44;8;8;
46240;PMS5003;31961;52.416;-0.732;2023-04-03T11:14:14;10;9;
46240;PMS5003;31961;52.416;-0.732;2023-04-03T11:16:50;7;7;
46240;PMS5003;31961;52.416;-0.732;2023-04-03T11:19:31;7;7;
46240;PMS5003;31961;52.416;-0.732;2023-04-03T11:22:04;8;8;
46240;PMS5003;31961;52.416;-0.732;2023-04-03T11:24:40;9;8;
46240;PMS5003;31961;52.416;-0.732;2023-04-03T11:27:11;6;6;
46240;PMS5003;31961;52.416;-0.732;2023-04-03T11:29:43;9;8;
46240;PMS5003;31961;52.416;-0.732;2023-04-03T11:32:20;8;8;
46240;PMS5003;31961;52.416;-0.732;2023-04-03T11:35:10;7;7;
46240;PMS5003;31961;52.416;-0.732;2023-04-03T11:37:38;9;8;
46240;PMS5003;31961;52.416;-0.732;2023-04-03T11:40:13;9;9;
46240;PMS5003;31961;52.416;-0.732;2023-04-03T11:42:48;7;7;
46240;PMS5003;31961;52.416;-0.732;2023-04-03T11:45:24;8;7;
46240;PMS5003;31961;52.416;-0.732;2023-04-03T11:47:58;6;6;
46240;PMS5003;31961;52.416;-0.732;2023-04-03T11:50:43;6;6;
46240;PMS5003;31961;52.416;-0.732;2023-04-03T11:53:34;8;8;
46240;PMS5003;31961;52.416;-0.732;2023-04-03T11:56:26;7;7;
46240;PMS5003;31961;52.416;-0.732;2023-04-03T11:59:15;8;7;
46240;PMS5003;31961;52.416;-0.732;2023-04-03T12:01:49;8;8;
46240;PMS5003;31961;52.416;-0.732;2023-04-03T12:04:19;10;8;
46240;PMS5003;31961;52.416;-0.732;2023-04-03T12:06:50;6;6;
46240;PMS5003;31961;52.416;-0.732;2023-04-03T12:09:25;7;6;
46240;PMS5003;31961;52.416;-0.732;2023-04-03T12:11:54;10;9;
46240;PMS5003;31961;52.416;-0.732;2023-04-03T12:14:24;7;7;
46240;PMS5003;31961;52.416;-0.732;2023-04-03T12:16:54;7;4;
46240;PMS5003;31961;52.416;-0.732;2023-04-03T12:19:31;7;7;
46240;PMS5003;31961;52.416;-0.732;2023-04-03T12:22:09;6;5;
46240;PMS5003;31961;52.416;-0.732;2023-04-03T12:24:39;8;8;
46240;PMS5003;31961;52.416;-0.732;2023-04-03T12:27:40;6;6;
46240;PMS5003;31961;52.416;-0.732;2023-04-03T12:30:13;6;5;
46240;PMS5003;31961;52.416;-0.732;2023-04-03T12:33:04;8;7;
46240;PMS5003;31961;52.416;-0.732;2023-04-03T12:35:46;7;7;
46240;PMS5003;31961;52.416;-0.732;2023-04-03T12:38:29;8;8;
46240;PMS5003;31961;52.416;-0.732;2023-04-03T12:41:17;6;6;
46240;PMS5003;31961;52.416;-0.732;2023-04-03T12:43:53;6;4;
46240;PMS5003;31961;52.416;-0.732;2023-04-03T12:46:36;9;8;
46240;PMS5003;31961;52.416;-0.732;2023-04-03T12:49:38;7;7;
46240;PMS5003;31961;52.416;-0.732;2023-04-03T12:52:19;7;6;
46240;PMS5003;31961;52.416;-0.732;2023-04-03T12:55:19;12;10;
46240;PMS5003;31961;52.416;-0.732;2023-04-03T12:57:54;8;8;
46240;PMS5003;31961;52.416;-0.732;2023-04-03T13:00:59;9;8;
46240;PMS5003;31961;52.416;-0.732;2023-04-03T13:03:42;8;7;
46240;PMS5003;31961;52.416;-0.732;2023-04-03T13:06:23;7;7;
46240;PMS5003;31961;52.416;-0.732;2023-04-03T13:09:14;6;6;
46240;PMS5003;31961;52.416;-0.732;2023-04-03T13:12:02;8;8;
46240;PMS5003;31961;52.416;-0.732;2023-04-03T13:14:55;8;7;
46240;PMS5003;31961;52.416;-0.732;2023-04-03T13:17:42;8;8;
46240;PMS5003;31961;52.416;-0.732;2023-04-03T13:20:24;6;6;
46240;PMS5003;31961;52.416;-0.732;2023-04-03T13:23:03;6;5;
46240;PMS5003;31961;52.416;-0.732;2023-04-03T13:25:49;9;8;
46240;PMS5003;31961;52.416;-0.732;2023-04-03T13:28:23;8;6;
46240;PMS5003;31961;52.416;-0.732;2023-04-03T13:31:14;6;6;
46240;PMS5003;31961;52.416;-0.732;2023-04-03T13:34:02;6;6;
46240;PMS5003;31961;52.416;-0.732;2023-04-03T13:36:43;9;6;
46240;PMS5003;31961;52.416;-0.732;2023-04-03T13:39:30;9;7;
46240;PMS5003;31961;52.416;-0.732;2023-04-03T13:42:17;8;7;
46240;PMS5003;31961;52.416;-0.732;2023-04-03T13:45:16;7;6;
46240;PMS5003;31961;52.416;-0.732;2023-04-03T13:48:07;7;7;
46240;PMS5003;31961;52.416;-0.732;2023-04-03T13:50:58;7;7;
46240;PMS5003;31961;52.416;-0.732;2023-04-03T13:53:59;6;6;
46240;PMS5003;31961;52.416;-0.732;2023-04-03T13:57:27;8;7;
46240;PMS5003;31961;52.416;-0.732;2023-04-03T13:59:55;7;7;
46240;PMS5003;31961;52.416;-0.732;2023-04-03T14:02:28;9;8;
46240;PMS5003;31961;52.416;-0.732;2023-04-03T14:04:58;8;8;
46240;PMS5003;31961;52.416;-0.732;2023-04-03T14:07:26;7;7;
46240;PMS5003;31961;52.416;-0.732;2023-04-03T14:09:55;8;8;
46240;PMS5003;31961;52.416;-0.732;2023-04-03T14:12:25;8;7;
46240;PMS5003;31961;52.416;-0.732;2023-04-03T14:14:54;9;7;
46240;PMS5003;31961;52.416;-0.732;2023-04-03T14:17:23;7;7;
46240;PMS5003;31961;52.416;-0.732;2023-04-03T14:19:52;8;8;
46240;PMS5003;31961;52.416;-0.732;2023-04-03T14:22:23;8;8;
46240;PMS5003;31961;52.416;-0.732;2023-04-03T14:24:51;6;6;
46240;PMS5003;31961;52.416;-0.732;2023-04-03T14:27:19;6;6;
46240;PMS5003;31961;52.416;-0.732;2023-04-03T14:29:49;10;10;
46240;PMS5003;31961;52.416;-0.732;2023-04-03T14:32:19;9;9;
46240;PMS5003;31961;52.416;-0.732;2023-04-03T14:34:48;9;7;
46240;PMS5003;31961;52.416;-0.732;2023-04-03T14:37:18;9;8;
46240;PMS5003;31961;52.416;-0.732;2023-04-03T14:39:48;9;9;
46240;PMS5003;31961;52.416;-0.732;2023-04-03T14:42:17;10;8;
46240;PMS5003;31961;52.416;-0.732;2023-04-03T14:44:46;10;9;
46240;PMS5003;31961;52.416;-0.732;2023-04-03T14:47:15;7;7;
46240;PMS5003;31961;52.416;-0.732;2023-04-03T14:49:44;7;7;
46240;PMS5003;31961;52.416;-0.732;2023-04-03T14:52:16;7;7;
46240;PMS5003;31961;52.416;-0.732;2023-04-03T14:54:46;6;6;
46240;PMS5003;31961;52.416;-0.732;2023-04-03T14:57:14;7;7;
46240;PMS5003;31961;52.416;-0.732;2023-04-03T14:59:43;9;9;
46240;PMS5003;31961;52.416;-0.732;2023-04-03T15:02:20;8;7;
46240;PMS5003;31961;52.416;-0.732;2023-04-03T15:04:53;9;9;
46240;PMS5003;31961;52.416;-0.732;2023-04-03T15:07:21;7;7;
46240;PMS5003;31961;52.416;-0.732;2023-04-03T15:09:51;7;7;
46240;PMS5003;31961;52.416;-0.732;2023-04-03T15:12:18;6;6;
46240;PMS5003;31961;52.416;-0.732;2023-04-03T15:14:46;5;5;
46240;PMS5003;31961;52.416;-0.732;2023-04-03T15:17:14;12;11;
46240;PMS5003;31961;52.416;-0.732;2023-04-03T15:19:43;6;6;
46240;PMS5003;31961;52.416;-0.732;2023-04-03T15:22:13;8;7;
46240;PMS5003;31961;52.416;-0.732;2023-04-03T15:24:41;7;7;
46240;PMS5003;31961;52.416;-0.732;2023-04-03T15:27:09;8;8;
46240;PMS5003;31961;52.416;-0.732;2023-04-03T15:29:38;8;7;
46240;PMS5003;31961;52.416;-0.732;2023-04-03T15:32:07;8;8;
46240;PMS5003;31961;52.416;-0.732;2023-04-03T15:34:36;9;8;
46240;PMS5003;31961;52.416;-0.732;2023-04-03T15:37:03;10;9;
46240;PMS5003;31961;52.416;-0.732;2023-04-03T15:39:31;8;7;
46240;PMS5003;31961;52.416;-0.732;2023-04-03T15:41:58;7;6;
46240;PMS5003;31961;52.416;-0.732;2023-04-03T15:44:26;8;8;
46240;PMS5003;31961;52.416;-0.732;2023-04-03T15:46:53;10;8;
46240;PMS5003;31961;52.416;-0.732;2023-04-03T15:49:21;7;7;
46240;PMS5003;31961;52.416;-0.732;2023-04-03T15:51:48;7;7;
46240;PMS5003;31961;52.416;-0.732;2023-04-03T15:54:16;9;8;
46240;PMS5003;31961;52.416;-0.732;2023-04-03T15:56:44;6;6;
46240;PMS5003;31961;52.416;-0.732;2023-04-03T15:59:11;7;7;
46240;PMS5003;31961;52.416;-0.732;2023-04-03T16:01:38;7;7;
46240;PMS5003;31961;52.416;-0.732;2023-04-03T16:04:07;9;9;
46240;PMS5003;31961;52.416;-0.732;2023-04-03T16:06:36;7;7;
46240;PMS5003;31961;52.416;-0.732;2023-04-03T16:09:03;8;7;
46240;PMS5003;31961;52.416;-0.732;2023-04-03T16:11:31;6;5;
46240;PMS5003;31961;52.416;-0.732;2023-04-03T16:13:59;7;7;
46240;PMS5003;31961;52.416;-0.732;2023-04-03T16:16:26;6;6;
46240;PMS5003;31961;52.416;-0.732;2023-04-03T16:18:54;8;7;
46240;PMS5003;31961;52.416;-0.732;2023-04-03T16:21:22;9;9;
46240;PMS5003;31961;52.416;-0.732;2023-04-03T16:23:49;6;6;
46240;PMS5003;31961;52.416;-0.732;2023-04-03T16:26:17;8;6;
46240;PMS5003;31961;52.416;-0.732;2023-04-03T16:28:45;9;9;
46240;PMS5003;31961;52.416;-0.732;2023-04-03T16:31:12;6;6;
46240;PMS5003;31961;52.416;-0.732;2023-04-03T16:33:40;7;7;
46240;PMS5003;31961;52.416;-0.732;2023-04-03T16:36:07;10;9;
46240;PMS5003;31961;52.416;-0.732;2023-04-03T16:38:35;8;8;
46240;PMS5003;31961;52.416;-0.732;2023-04-03T16:41:02;8;8;
46240;PMS5003;31961;52.416;-0.732;2023-04-03T16:43:29;6;6;
46240;PMS5003;31961;52.416;-0.732;2023-04-03T16:45:57;8;8;
46240;PMS5003;31961;52.416;-0.732;2023-04-03T16:48:25;9;9;
46240;PMS5003;31961;52.416;-0.732;2023-04-03T16:50:52;9;7;
46240;PMS5003;31961;52.416;-0.732;2023-04-03T16:53:19;10;9;
46240;PMS5003;31961;52.416;-0.732;2023-04-03T16:55:47;9;9;
46240;PMS5003;31961;52.416;-0.732;2023-04-03T16:58:14;10;9;
46240;PMS5003;31961;52.416;-0.732;2023-04-03T17:00:42;9;9;